Time;durP1;ratioP1;P1;durP2;ratioP2;P2;SDS_P1;SDS_P2;PMS_P1;PMS_P2;Temp;Humidity;BMP_temperature;BMP_pressure;BME280_temperature;BME280_humidity;BME280_pressure;Samples;Min_cycle;Max_cycle;Signal;HPM_P1;HPM_P2
2022/11/26 00:00:28;;;;;;;18.50;6.82;;;;;;;;;;5032730;28;20127;-68
2022/11/26 00:02:55;;;;;;;15.73;6.88;;;;;;;;;;5034388;28;20049;-67
2022/11/26 00:05:22;;;;;;;15.10;6.38;;;;;;;;;;5034605;28;20049;-67
2022/11/26 00:07:56;;;;;;;13.63;6.60;;;;;;;;;;5033679;28;20099;-66
2022/11/26 00:10:28;;;;;;;15.48;6.10;;;;;;;;;;5032646;28;20425;-67
2022/11/26 00:12:55;;;;;;;17.88;6.53;;;;;;;;;;5015432;28;20092;-66
2022/11/26 00:15:24;;;;;;;13.90;6.40;;;;;;;;;;5033760;28;20057;-66
2022/11/26 00:17:51;;;;;;;11.85;6.07;;;;;;;;;;5033338;28;20724;-67
2022/11/26 00:20:20;;;;;;;12.57;5.68;;;;;;;;;;5033686;28;20049;-66
2022/11/26 00:22:54;;;;;;;14.15;5.95;;;;;;;;;;5033828;28;20397;-66
2022/11/26 00:25:23;;;;;;;14.80;6.57;;;;;;;;;;5034312;28;20315;-67
2022/11/26 00:27:51;;;;;;;18.17;6.75;;;;;;;;;;5032976;28;20053;-66
2022/11/26 00:30:20;;;;;;;15.25;6.75;;;;;;;;;;5032487;28;20053;-67
2022/11/26 00:32:46;;;;;;;13.45;6.00;;;;;;;;;;5033690;28;20507;-67
2022/11/26 00:35:14;;;;;;;13.93;6.93;;;;;;;;;;5033468;28;20049;-67
2022/11/26 00:37:50;;;;;;;15.27;6.30;;;;;;;;;;5033384;28;20180;-66
2022/11/26 00:40:24;;;;;;;17.35;6.53;;;;;;;;;;5015531;28;20500;-67
2022/11/26 00:42:52;;;;;;;15.05;6.47;;;;;;;;;;5032321;28;20053;-68
2022/11/26 00:45:27;;;;;;;13.80;5.65;;;;;;;;;;5033257;28;20049;-67
2022/11/26 00:47:54;;;;;;;15.95;6.30;;;;;;;;;;5031035;28;20131;-67
2022/11/26 00:50:23;;;;;;;15.98;6.35;;;;;;;;;;5033035;28;20103;-67
2022/11/26 00:52:52;;;;;;;14.52;6.38;;;;;;;;;;5015421;28;20045;-67
2022/11/26 00:55:29;;;;;;;14.32;6.03;;;;;;;;;;5015410;28;20053;-66
2022/11/26 00:57:56;;;;;;;15.93;6.22;;;;;;;;;;5031329;28;20072;-66
2022/11/26 01:00:28;;;;;;;17.63;6.68;;;;;;;;;;5032801;28;20053;-67
2022/11/26 01:02:55;;;;;;;15.70;6.20;;;;;;;;;;5032869;28;20046;-66
2022/11/26 01:05:25;;;;;;;20.30;7.15;;;;;;;;;;5032828;28;20120;-68
2022/11/26 01:07:51;;;;;;;16.63;7.32;;;;;;;;;;5032281;28;20078;-68
2022/11/26 01:10:22;;;;;;;14.52;7.40;;;;;;;;;;5031544;28;20490;-66
2022/11/26 01:12:49;;;;;;;16.58;6.45;;;;;;;;;;5032907;28;20451;-67
2022/11/26 01:15:17;;;;;;;12.65;5.95;;;;;;;;;;5032611;28;20075;-67
2022/11/26 01:17:44;;;;;;;17.45;6.55;;;;;;;;;;5032356;28;20103;-68
2022/11/26 01:20:26;;;;;;;20.85;7.70;;;;;;;;;;5032066;28;20049;-66
2022/11/26 01:22:54;;;;;;;16.55;6.32;;;;;;;;;;5032579;28;20099;-66
2022/11/26 01:25:21;;;;;;;14.27;6.82;;;;;;;;;;5032200;28;20397;-66
2022/11/26 01:27:48;;;;;;;12.77;6.20;;;;;;;;;;5031902;28;20131;-66
2022/11/26 01:30:33;;;;;;;13.57;6.75;;;;;;;;;;5032199;28;20049;-66
2022/11/26 01:33:00;;;;;;;11.20;6.38;;;;;;;;;;5032781;28;20103;-70
2022/11/26 01:35:27;;;;;;;13.48;6.65;;;;;;;;;;5032372;28;20049;-67
2022/11/26 01:37:54;;;;;;;18.77;6.70;;;;;;;;;;5031836;28;20050;-66
2022/11/26 01:40:53;;;;;;;16.60;7.25;;;;;;;;;;5031904;28;20057;-67
2022/11/26 01:43:30;;;;;;;20.40;7.47;;;;;;;;;;5032121;28;20045;-67
2022/11/26 01:45:57;;;;;;;13.90;6.90;;;;;;;;;;5029446;28;20104;-66
2022/11/26 01:48:28;;;;;;;20.77;7.80;;;;;;;;;;5031542;28;20050;-67
2022/11/26 01:51:05;;;;;;;14.55;6.43;;;;;;;;;;5031868;28;20053;-66
2022/11/26 01:53:39;;;;;;;18.58;7.75;;;;;;;;;;5032331;28;20084;-66
2022/11/26 01:56:44;;;;;;;15.88;7.72;;;;;;;;;;5031929;28;20053;-67
2022/11/26 01:59:31;;;;;;;20.63;8.23;;;;;;;;;;5014181;28;20099;-67
2022/11/26 02:01:58;;;;;;;16.27;8.10;;;;;;;;;;5032093;28;20045;-67
2022/11/26 02:04:29;;;;;;;14.75;7.35;;;;;;;;;;5014437;28;20046;-67
2022/11/26 02:06:56;;;;;;;16.48;8.80;;;;;;;;;;5014570;28;20049;-66
2022/11/26 02:09:23;;;;;;;16.15;8.60;;;;;;;;;;5031006;28;20091;-67
2022/11/26 02:11:50;;;;;;;21.80;8.88;;;;;;;;;;5014119;28;20578;-67
2022/11/26 02:14:20;;;;;;;20.35;8.07;;;;;;;;;;5031753;28;20496;-66
2022/11/26 02:16:56;;;;;;;16.58;8.48;;;;;;;;;;5031868;28;20053;-67
2022/11/26 02:19:38;;;;;;;24.75;9.35;;;;;;;;;;5030834;28;20103;-67
2022/11/26 02:22:32;;;;;;;16.92;7.70;;;;;;;;;;5031741;28;20045;-66
2022/11/26 02:25:30;;;;;;;16.27;8.27;;;;;;;;;;5031781;28;20053;-66
2022/11/26 02:28:31;;;;;;;16.88;8.43;;;;;;;;;;5025719;28;20168;-67
2022/11/26 02:31:08;;;;;;;14.65;8.40;;;;;;;;;;5031502;28;20610;-67
2022/11/26 02:33:58;;;;;;;13.55;7.95;;;;;;;;;;5030645;28;20053;-67
2022/11/26 02:36:40;;;;;;;17.80;8.30;;;;;;;;;;5032109;28;20565;-66
2022/11/26 02:39:15;;;;;;;14.20;8.15;;;;;;;;;;5017352;28;20099;-67
2022/11/26 02:41:50;;;;;;;16.85;8.70;;;;;;;;;;5035526;28;20050;-67
2022/11/26 02:44:22;;;;;;;16.77;8.30;;;;;;;;;;5035675;28;20045;-67
2022/11/26 02:46:50;;;;;;;15.02;8.07;;;;;;;;;;5032940;28;20484;-67
2022/11/26 02:49:20;;;;;;;15.77;7.88;;;;;;;;;;5034660;28;20085;-66
2022/11/26 02:51:48;;;;;;;15.98;8.23;;;;;;;;;;5035384;28;20148;-66
2022/11/26 02:54:15;;;;;;;16.13;7.93;;;;;;;;;;5017938;28;20098;-66
2022/11/26 02:56:42;;;;;;;19.92;8.15;;;;;;;;;;5018031;28;20081;-66
2022/11/26 02:59:09;;;;;;;17.15;7.95;;;;;;;;;;5017152;28;20080;-66
2022/11/26 03:01:41;;;;;;;17.52;7.70;;;;;;;;;;5035260;28;20068;-66
2022/11/26 03:04:15;;;;;;;18.35;8.68;;;;;;;;;;5033793;28;20099;-67
2022/11/26 03:06:42;;;;;;;20.30;7.95;;;;;;;;;;5034133;28;20052;-67
2022/11/26 03:09:08;;;;;;;18.98;7.90;;;;;;;;;;5016928;28;20045;-66
2022/11/26 03:11:35;;;;;;;19.92;7.93;;;;;;;;;;5035166;28;20053;-66
2022/11/26 03:14:02;;;;;;;12.75;7.45;;;;;;;;;;5035050;28;20041;-67
2022/11/26 03:16:29;;;;;;;13.77;7.22;;;;;;;;;;5034839;28;20049;-67
2022/11/26 03:18:55;;;;;;;16.98;7.07;;;;;;;;;;5034431;28;20049;-66
2022/11/26 03:21:22;;;;;;;12.02;6.65;;;;;;;;;;5034280;28;20053;-67
2022/11/26 03:23:49;;;;;;;14.23;8.13;;;;;;;;;;5035062;28;20049;-67
2022/11/26 03:26:16;;;;;;;14.35;7.35;;;;;;;;;;5034920;28;20099;-66
2022/11/26 03:28:42;;;;;;;15.30;7.03;;;;;;;;;;5034012;28;20140;-66
2022/11/26 03:31:09;;;;;;;17.00;7.15;;;;;;;;;;5034537;28;20053;-67
2022/11/26 03:33:36;;;;;;;16.25;6.97;;;;;;;;;;5034550;28;20045;-67
2022/11/26 03:36:02;;;;;;;12.48;7.18;;;;;;;;;;5034580;28;20570;-67
2022/11/26 03:38:29;;;;;;;13.05;6.55;;;;;;;;;;5033906;28;20057;-67
2022/11/26 03:41:01;;;;;;;16.80;8.18;;;;;;;;;;5034248;28;20508;-66
2022/11/26 03:43:27;;;;;;;12.68;7.68;;;;;;;;;;5034322;28;20137;-68
2022/11/26 03:45:54;;;;;;;13.30;6.82;;;;;;;;;;5033403;28;20463;-67
2022/11/26 03:48:21;;;;;;;17.77;7.57;;;;;;;;;;5033874;28;20056;-66
2022/11/26 03:50:47;;;;;;;14.55;7.75;;;;;;;;;;5034036;28;20068;-67
2022/11/26 03:53:14;;;;;;;18.00;7.75;;;;;;;;;;5034289;28;20080;-66
2022/11/26 03:55:41;;;;;;;15.05;7.82;;;;;;;;;;5034201;28;20104;-65
2022/11/26 03:58:08;;;;;;;17.00;7.90;;;;;;;;;;5033628;28;20302;-67
2022/11/26 04:00:34;;;;;;;17.27;9.32;;;;;;;;;;5034181;28;20103;-65
2022/11/26 04:03:02;;;;;;;15.32;7.85;;;;;;;;;;5034316;28;20052;-66
2022/11/26 04:05:29;;;;;;;13.93;8.38;;;;;;;;;;5034030;28;20057;-66
2022/11/26 04:07:55;;;;;;;16.67;8.68;;;;;;;;;;5033484;28;20077;-67
2022/11/26 04:10:22;;;;;;;16.25;7.82;;;;;;;;;;5033728;28;20470;-66
2022/11/26 04:12:49;;;;;;;17.20;8.73;;;;;;;;;;5033754;28;20045;-65
2022/11/26 04:15:15;;;;;;;21.10;8.85;;;;;;;;;;5033820;28;20512;-65
2022/11/26 04:17:42;;;;;;;18.75;9.40;;;;;;;;;;5034145;28;20049;-66
2022/11/26 04:20:09;;;;;;;20.20;9.07;;;;;;;;;;5054366;22;20099;-64
2022/11/26 04:22:35;;;;;;;18.85;8.88;;;;;;;;;;5033931;28;20092;-65
2022/11/26 04:25:02;;;;;;;18.52;9.65;;;;;;;;;;5033904;28;20136;-65
2022/11/26 04:27:29;;;;;;;19.23;9.02;;;;;;;;;;5033921;28;20554;-65
2022/11/26 04:29:55;;;;;;;17.75;10.60;;;;;;;;;;5030045;28;20416;-65
2022/11/26 04:32:22;;;;;;;20.40;10.70;;;;;;;;;;5014215;28;20185;-66
2022/11/26 04:34:49;;;;;;;12.63;8.95;;;;;;;;;;5014012;28;20050;-66
2022/11/26 04:37:15;;;;;;;20.10;9.88;;;;;;;;;;5014017;28;20073;-65
2022/11/26 04:39:42;;;;;;;20.48;9.95;;;;;;;;;;5013216;28;20058;-65
2022/11/26 04:42:09;;;;;;;19.23;10.13;;;;;;;;;;5014161;28;20045;-65
2022/11/26 04:44:35;;;;;;;21.88;9.73;;;;;;;;;;5013684;28;20138;-64
2022/11/26 04:47:02;;;;;;;24.30;9.60;;;;;;;;;;5013094;28;20392;-65
2022/11/26 04:49:29;;;;;;;21.27;9.32;;;;;;;;;;5014036;28;20053;-65
2022/11/26 04:51:56;;;;;;;19.25;10.02;;;;;;;;;;5013570;28;20050;-65
2022/11/26 04:54:22;;;;;;;18.55;9.13;;;;;;;;;;5013307;28;20563;-65
2022/11/26 04:56:49;;;;;;;19.33;10.05;;;;;;;;;;5013765;28;20103;-65
2022/11/26 04:59:15;;;;;;;18.27;9.27;;;;;;;;;;5012536;28;20145;-65
2022/11/26 05:01:42;;;;;;;16.02;9.52;;;;;;;;;;5013653;28;20053;-65
2022/11/26 05:04:09;;;;;;;20.83;9.80;;;;;;;;;;5013630;28;20053;-65
2022/11/26 05:06:35;;;;;;;22.98;9.90;;;;;;;;;;5013353;28;20104;-66
2022/11/26 05:09:02;;;;;;;16.23;9.27;;;;;;;;;;5012619;28;20050;-66
2022/11/26 05:11:29;;;;;;;24.33;10.23;;;;;;;;;;5011848;28;20092;-66
2022/11/26 05:13:55;;;;;;;23.02;11.23;;;;;;;;;;5013727;28;20076;-66
2022/11/26 05:16:22;;;;;;;22.13;10.95;;;;;;;;;;5013471;28;20073;-66
2022/11/26 05:18:49;;;;;;;24.95;11.73;;;;;;;;;;5012876;28;20108;-66
2022/11/26 05:21:15;;;;;;;21.13;10.57;;;;;;;;;;5012802;28;20104;-66
2022/11/26 05:23:42;;;;;;;16.17;9.85;;;;;;;;;;5013006;28;20088;-66
2022/11/26 05:26:08;;;;;;;20.50;9.98;;;;;;;;;;4995786;28;20085;-66
2022/11/26 05:28:35;;;;;;;15.02;9.80;;;;;;;;;;5012206;28;20100;-65
2022/11/26 05:31:02;;;;;;;19.70;9.80;;;;;;;;;;5012969;28;20505;-66
2022/11/26 05:33:29;;;;;;;19.15;9.25;;;;;;;;;;5013081;28;20133;-65
2022/11/26 05:35:55;;;;;;;20.10;10.27;;;;;;;;;;5013208;28;20100;-66
2022/11/26 05:38:22;;;;;;;18.92;9.48;;;;;;;;;;5012632;28;20049;-66
2022/11/26 05:40:48;;;;;;;21.20;10.07;;;;;;;;;;5012679;28;20136;-66
2022/11/26 05:43:15;;;;;;;22.77;11.68;;;;;;;;;;5012665;28;20053;-66
2022/11/26 05:45:41;;;;;;;24.73;11.95;;;;;;;;;;4994679;28;20136;-66
2022/11/26 05:48:08;;;;;;;22.30;12.43;;;;;;;;;;5011426;28;20059;-66
2022/11/26 05:50:35;;;;;;;21.23;10.25;;;;;;;;;;5012277;28;20100;-65
2022/11/26 05:53:01;;;;;;;21.40;10.95;;;;;;;;;;5012834;28;20100;-65
2022/11/26 05:55:28;;;;;;;22.33;11.15;;;;;;;;;;5012646;28;20045;-66
2022/11/26 05:57:55;;;;;;;23.10;11.65;;;;;;;;;;5012075;28;20145;-65
2022/11/26 06:00:22;;;;;;;18.63;11.65;;;;;;;;;;5012349;28;20421;-66
2022/11/26 06:02:48;;;;;;;27.73;12.73;;;;;;;;;;5012427;28;20054;-66
2022/11/26 06:05:15;;;;;;;19.52;10.93;;;;;;;;;;5012114;28;20092;-66
2022/11/26 06:07:42;;;;;;;20.60;11.80;;;;;;;;;;4994989;28;20081;-65
2022/11/26 06:10:11;;;;;;;27.58;11.63;;;;;;;;;;5010960;28;20050;-66
2022/11/26 06:12:37;;;;;;;20.83;11.15;;;;;;;;;;5012155;28;20428;-65
2022/11/26 06:15:05;;;;;;;17.70;9.63;;;;;;;;;;5012655;28;20042;-66
2022/11/26 06:17:31;;;;;;;19.90;11.57;;;;;;;;;;5012172;28;20050;-65
2022/11/26 06:19:58;;;;;;;19.23;11.05;;;;;;;;;;5011193;28;20058;-66
2022/11/26 06:22:25;;;;;;;16.75;10.75;;;;;;;;;;5012434;28;20479;-66
2022/11/26 06:24:51;;;;;;;17.50;11.15;;;;;;;;;;5012179;28;20042;-65
2022/11/26 06:27:18;;;;;;;18.88;10.25;;;;;;;;;;5012181;28;20135;-66
2022/11/26 06:29:45;;;;;;;26.73;10.88;;;;;;;;;;5011443;28;20107;-66
2022/11/26 06:32:11;;;;;;;17.13;9.30;;;;;;;;;;5012175;28;20141;-66
2022/11/26 06:34:38;;;;;;;19.55;9.75;;;;;;;;;;5011614;28;20127;-66
2022/11/26 06:37:09;;;;;;;18.27;10.18;;;;;;;;;;5012039;28;20054;-66
2022/11/26 06:39:35;;;;;;;16.70;10.38;;;;;;;;;;5011595;28;20073;-66
2022/11/26 06:42:02;;;;;;;16.73;10.48;;;;;;;;;;5012197;28;20050;-66
2022/11/26 06:44:29;;;;;;;22.80;10.52;;;;;;;;;;5012024;28;20124;-66
2022/11/26 06:46:55;;;;;;;16.67;10.27;;;;;;;;;;5009801;28;20073;-66
2022/11/26 06:49:22;;;;;;;14.73;9.55;;;;;;;;;;5011484;28;20053;-64
2022/11/26 06:51:48;;;;;;;17.30;11.30;;;;;;;;;;5012145;28;20467;-65
2022/11/26 06:54:15;;;;;;;18.70;11.18;;;;;;;;;;4994777;28;20081;-65
2022/11/26 06:56:42;;;;;;;17.60;10.88;;;;;;;;;;5012106;28;20416;-66
2022/11/26 06:59:08;;;;;;;20.13;14.13;;;;;;;;;;5011546;28;20049;-65
2022/11/26 07:01:35;;;;;;;19.30;13.02;;;;;;;;;;5011874;28;20109;-66
2022/11/26 07:04:03;;;;;;;31.42;18.25;;;;;;;;;;5011992;28;20046;-66
2022/11/26 07:06:31;;;;;;;23.88;16.05;;;;;;;;;;5011820;28;20054;-66
2022/11/26 07:09:01;;;;;;;22.65;15.60;;;;;;;;;;5011274;28;20100;-66
2022/11/26 07:11:28;;;;;;;26.80;16.13;;;;;;;;;;5011994;28;20057;-66
2022/11/26 07:13:54;;;;;;;25.30;15.30;;;;;;;;;;5011749;28;20479;-65
2022/11/26 07:16:21;;;;;;;17.65;13.05;;;;;;;;;;5012088;28;20081;-66
2022/11/26 07:18:49;;;;;;;24.45;14.32;;;;;;;;;;5011340;28;20053;-66
2022/11/26 07:21:16;;;;;;;28.88;15.18;;;;;;;;;;5011566;28;20050;-65
2022/11/26 07:23:43;;;;;;;25.77;15.77;;;;;;;;;;5015749;28;20077;-65
2022/11/26 07:26:11;;;;;;;25.30;14.63;;;;;;;;;;5015387;28;20061;-66
2022/11/26 07:28:38;;;;;;;31.98;14.80;;;;;;;;;;5014809;28;20504;-66
2022/11/26 07:31:10;;;;;;;25.50;14.15;;;;;;;;;;5015428;28;20263;-66
2022/11/26 07:33:42;;;;;;;23.10;14.27;;;;;;;;;;5015407;28;20053;-66
2022/11/26 07:36:21;;;;;;;33.40;15.55;;;;;;;;;;5015312;28;20077;-66
2022/11/26 07:38:48;;;;;;;21.45;13.30;;;;;;;;;;5014594;28;20050;-66
2022/11/26 07:41:17;;;;;;;37.33;17.02;;;;;;;;;;5015151;28;20108;-66
2022/11/26 07:43:43;;;;;;;33.90;17.73;;;;;;;;;;5014932;28;20097;-65
2022/11/26 07:46:13;;;;;;;27.67;15.55;;;;;;;;;;5012993;28;20077;-66
2022/11/26 07:48:39;;;;;;;24.63;14.68;;;;;;;;;;5014273;28;20096;-65
2022/11/26 07:51:12;;;;;;;28.00;15.32;;;;;;;;;;5014847;28;20562;-66
2022/11/26 07:53:39;;;;;;;26.40;14.00;;;;;;;;;;4997520;28;20115;-66
2022/11/26 07:56:06;;;;;;;27.88;13.93;;;;;;;;;;5014706;28;20054;-66
2022/11/26 07:58:32;;;;;;;24.63;15.00;;;;;;;;;;5014275;28;20085;-67
2022/11/26 08:01:18;;;;;;;27.33;13.65;;;;;;;;;;4997460;28;20057;-66
2022/11/26 08:03:46;;;;;;;26.20;15.95;;;;;;;;;;5014805;28;20064;-66
2022/11/26 08:06:15;;;;;;;29.50;14.93;;;;;;;;;;4997423;28;20070;-65
2022/11/26 08:08:42;;;;;;;26.70;14.20;;;;;;;;;;5013885;28;20054;-65
2022/11/26 08:11:21;;;;;;;28.05;13.15;;;;;;;;;;5014467;28;20459;-66
2022/11/26 08:13:48;;;;;;;24.75;13.05;;;;;;;;;;5014670;28;20054;-65
2022/11/26 08:16:14;;;;;;;19.58;12.27;;;;;;;;;;5014385;28;20050;-66
2022/11/26 08:18:41;;;;;;;22.10;11.27;;;;;;;;;;5013597;28;20085;-65
2022/11/26 08:21:08;;;;;;;17.75;11.15;;;;;;;;;;5013892;28;20119;-66
2022/11/26 08:23:35;;;;;;;22.40;10.80;;;;;;;;;;5014310;28;20145;-65
2022/11/26 08:26:09;;;;;;;21.63;11.00;;;;;;;;;;5014225;28;20081;-65
2022/11/26 08:28:56;;;;;;;24.35;11.82;;;;;;;;;;5013453;28;20137;-66
2022/11/26 08:31:23;;;;;;;20.08;11.38;;;;;;;;;;5014066;28;20104;-66
2022/11/26 08:33:50;;;;;;;29.17;13.60;;;;;;;;;;5013269;28;20076;-66
2022/11/26 08:36:17;;;;;;;19.63;11.65;;;;;;;;;;5014271;28;20100;-65
2022/11/26 08:38:43;;;;;;;23.63;11.98;;;;;;;;;;5013504;28;20471;-65
2022/11/26 08:41:11;;;;;;;16.98;10.90;;;;;;;;;;5013924;28;20054;-65
2022/11/26 08:43:38;;;;;;;26.83;10.77;;;;;;;;;;5013867;28;20107;-64
2022/11/26 08:46:24;;;;;;;17.45;9.35;;;;;;;;;;5011525;28;20126;-64
2022/11/26 08:48:54;;;;;;;16.85;9.20;;;;;;;;;;4979863;28;20062;-65
2022/11/26 08:51:20;;;;;;;18.55;8.98;;;;;;;;;;5013647;28;20050;-66
2022/11/26 08:53:47;;;;;;;19.80;8.77;;;;;;;;;;5013635;28;20104;-65
2022/11/26 08:56:14;;;;;;;19.30;8.88;;;;;;;;;;5013479;28;20088;-65
2022/11/26 08:58:43;;;;;;;20.55;8.95;;;;;;;;;;5014784;28;20100;-65
2022/11/26 09:01:23;;;;;;;19.42;9.32;;;;;;;;;;5014661;28;20112;-65
2022/11/26 09:03:51;;;;;;;15.73;8.27;;;;;;;;;;5013488;28;20504;-66
2022/11/26 09:06:19;;;;;;;16.13;8.70;;;;;;;;;;5013430;28;20077;-66
2022/11/26 09:11:31;;;;;;;14.98;9.43;;;;;;;;;;5013406;28;20049;-66
2022/11/26 09:13:58;;;;;;;23.90;10.18;;;;;;;;;;5013310;28;20053;-66
2022/11/26 09:16:25;;;;;;;21.75;11.35;;;;;;;;;;5013375;28;20096;-66
2022/11/26 09:18:51;;;;;;;23.25;10.50;;;;;;;;;;5012603;28;20049;-65
2022/11/26 09:21:20;;;;;;;18.60;11.18;;;;;;;;;;5013419;28;20116;-66
2022/11/26 09:23:47;;;;;;;19.23;10.88;;;;;;;;;;5013187;28;20050;-66
2022/11/26 09:26:13;;;;;;;23.15;11.65;;;;;;;;;;5013295;28;20463;-66
2022/11/26 09:28:40;;;;;;;19.42;10.93;;;;;;;;;;5012432;28;20057;-66
2022/11/26 09:31:07;;;;;;;21.15;10.15;;;;;;;;;;4979498;28;20089;-66
2022/11/26 09:33:33;;;;;;;18.35;9.73;;;;;;;;;;5012944;28;20046;-65
2022/11/26 09:36:08;;;;;;;19.17;9.30;;;;;;;;;;5012939;28;20050;-66
2022/11/26 09:38:35;;;;;;;15.35;7.95;;;;;;;;;;5012838;28;20049;-66
2022/11/26 09:41:26;;;;;;;23.42;8.80;;;;;;;;;;5012950;28;20180;-66
2022/11/26 09:44:05;;;;;;;18.50;7.82;;;;;;;;;;5012686;28;20054;-66
2022/11/26 09:46:39;;;;;;;19.15;7.20;;;;;;;;;;5010305;28;20440;-66
2022/11/26 09:49:27;;;;;;;16.60;5.57;;;;;;;;;;5011710;28;20136;-65
2022/11/26 09:51:54;;;;;;;20.73;7.93;;;;;;;;;;5013748;28;20405;-66
2022/11/26 09:54:23;;;;;;;19.17;8.60;;;;;;;;;;5011665;28;20053;-66
2022/11/26 09:56:56;;;;;;;21.92;8.57;;;;;;;;;;4995438;28;20081;-66
2022/11/26 09:59:23;;;;;;;18.63;8.05;;;;;;;;;;5012485;28;20096;-66
2022/11/26 10:01:49;;;;;;;21.48;8.75;;;;;;;;;;5012654;28;20492;-66
2022/11/26 10:04:31;;;;;;;19.02;9.32;;;;;;;;;;5012642;28;20490;-66
2022/11/26 10:07:17;;;;;;;21.25;8.45;;;;;;;;;;5011261;28;20101;-66
2022/11/26 10:09:55;;;;;;;14.52;7.97;;;;;;;;;;5011749;28;20531;-66
2022/11/26 10:12:34;;;;;;;14.40;6.78;;;;;;;;;;4995300;28;20046;-66
2022/11/26 10:15:37;;;;;;;15.25;7.35;;;;;;;;;;5011755;28;20145;-65
2022/11/26 10:18:31;;;;;;;16.33;7.07;;;;;;;;;;5010754;28;20092;-66
2022/11/26 10:21:04;;;;;;;15.00;7.60;;;;;;;;;;5042776;22;20050;-63
2022/11/26 10:24:14;;;;;;;15.07;7.40;;;;;;;;;;5031632;28;20444;-64
2022/11/26 10:26:40;;;;;;;11.43;6.57;;;;;;;;;;4954521;28;20074;-64
2022/11/26 10:29:28;;;;;;;10.60;5.97;;;;;;;;;;4954038;28;20588;-65
2022/11/26 10:32:12;;;;;;;13.05;5.75;;;;;;;;;;4961961;28;20137;-65
2022/11/26 10:34:45;;;;;;;11.25;4.55;;;;;;;;;;5012160;28;20050;-64
2022/11/26 10:37:12;;;;;;;14.23;5.03;;;;;;;;;;4994608;28;20109;-66
2022/11/26 10:39:38;;;;;;;8.32;4.93;;;;;;;;;;4993929;28;20507;-65
2022/11/26 10:42:21;;;;;;;16.13;5.75;;;;;;;;;;4994386;28;20088;-66
2022/11/26 10:44:50;;;;;;;9.48;5.70;;;;;;;;;;4996316;28;20054;-65
2022/11/26 10:47:28;;;;;;;11.93;5.25;;;;;;;;;;5009849;28;20054;-64
2022/11/26 10:50:01;;;;;;;20.08;8.73;;;;;;;;;;4993750;28;20046;-65
2022/11/26 10:52:48;;;;;;;17.02;8.18;;;;;;;;;;4998157;28;20046;-65
2022/11/26 10:55:24;;;;;;;13.65;6.05;;;;;;;;;;4962349;28;20050;-64
2022/11/26 10:58:04;;;;;;;12.30;6.15;;;;;;;;;;4980881;28;20115;-65
2022/11/26 11:00:38;;;;;;;11.80;5.65;;;;;;;;;;4999985;28;20050;-65
2022/11/26 11:03:18;;;;;;;12.40;6.82;;;;;;;;;;4998045;28;20046;-64
2022/11/26 11:06:32;;;;;;;11.50;5.93;;;;;;;;;;4988541;28;20046;-64
2022/11/26 11:08:59;;;;;;;15.10;6.88;;;;;;;;;;5000300;28;20053;-64
2022/11/26 11:11:30;;;;;;;12.57;6.80;;;;;;;;;;5015249;28;20132;-64
2022/11/26 11:13:56;;;;;;;17.65;6.35;;;;;;;;;;4998010;28;20096;-65
2022/11/26 11:16:37;;;;;;;15.50;6.50;;;;;;;;;;4999158;28;20492;-65
2022/11/26 11:19:05;;;;;;;17.55;7.15;;;;;;;;;;4999458;28;20050;-65
2022/11/26 11:21:35;;;;;;;9.82;5.00;;;;;;;;;;5020062;28;20558;-63
2022/11/26 11:24:11;;;;;;;11.02;5.05;;;;;;;;;;4985888;28;20046;-64
2022/11/26 11:26:42;;;;;;;10.38;4.82;;;;;;;;;;5001515;28;20424;-65
2022/11/26 11:29:27;;;;;;;10.02;5.13;;;;;;;;;;4983468;28;20489;-65
2022/11/26 11:31:55;;;;;;;11.85;5.55;;;;;;;;;;5017593;28;20555;-65
2022/11/26 11:34:34;;;;;;;16.27;6.07;;;;;;;;;;4999932;28;20054;-65
2022/11/26 11:37:20;;;;;;;12.57;5.72;;;;;;;;;;4999363;28;20092;-66
2022/11/26 11:40:22;;;;;;;18.08;5.90;;;;;;;;;;4997688;28;20500;-66
2022/11/26 11:42:59;;;;;;;13.68;5.88;;;;;;;;;;5001682;28;20081;-65
2022/11/26 11:45:33;;;;;;;11.82;5.80;;;;;;;;;;4988097;28;20390;-65
2022/11/26 11:48:12;;;;;;;16.65;6.30;;;;;;;;;;5021352;28;20100;-63
2022/11/26 11:50:42;;;;;;;15.00;5.72;;;;;;;;;;5024693;28;20114;-64
2022/11/26 11:53:15;;;;;;;15.10;6.13;;;;;;;;;;4988342;28;20053;-65
2022/11/26 11:56:00;;;;;;;13.43;6.07;;;;;;;;;;5020340;28;20046;-65
2022/11/26 11:58:52;;;;;;;14.95;5.38;;;;;;;;;;5021604;28;20519;-65
2022/11/26 12:01:44;;;;;;;11.98;5.00;;;;;;;;;;5019215;28;20532;-65
2022/11/26 12:04:44;;;;;;;10.10;4.93;;;;;;;;;;5022850;28;20365;-64
2022/11/26 12:07:29;;;;;;;8.90;4.10;;;;;;;;;;5016170;28;20495;-65
2022/11/26 12:09:59;;;;;;;8.10;4.00;;;;;;;;;;5012830;28;20049;-65
2022/11/26 12:12:34;;;;;;;9.40;3.95;;;;;;;;;;5014359;28;20104;-65
2022/11/26 12:15:09;;;;;;;13.48;4.53;;;;;;;;;;4981912;28;20073;-65
2022/11/26 12:17:56;;;;;;;11.73;3.10;;;;;;;;;;5014225;28;20073;-65
2022/11/26 12:20:39;;;;;;;10.68;4.25;;;;;;;;;;4996453;28;20112;-65
2022/11/26 12:23:33;;;;;;;7.07;3.05;;;;;;;;;;4996816;28;20062;-65
2022/11/26 12:26:10;;;;;;;10.75;4.07;;;;;;;;;;4998663;28;20077;-65
2022/11/26 12:28:59;;;;;;;8.48;4.07;;;;;;;;;;4996335;28;20061;-64
2022/11/26 12:31:38;;;;;;;8.50;3.67;;;;;;;;;;4973940;28;20062;-65
2022/11/26 12:34:15;;;;;;;6.65;3.45;;;;;;;;;;4982117;28;20053;-65
2022/11/26 12:36:50;;;;;;;12.40;3.72;;;;;;;;;;4981480;28;20421;-65
2022/11/26 12:39:35;;;;;;;7.38;3.38;;;;;;;;;;4996387;28;20060;-66
2022/11/26 12:42:21;;;;;;;8.50;3.75;;;;;;;;;;4996816;28;20081;-65
2022/11/26 12:44:50;;;;;;;7.18;3.70;;;;;;;;;;4997535;28;20077;-66
2022/11/26 12:47:36;;;;;;;7.47;3.20;;;;;;;;;;4978847;28;20093;-65
2022/11/26 12:50:18;;;;;;;10.20;2.95;;;;;;;;;;4981179;28;20104;-65
2022/11/26 12:53:06;;;;;;;6.10;2.92;;;;;;;;;;5014095;28;20061;-66
2022/11/26 12:55:45;;;;;;;6.93;3.22;;;;;;;;;;5013560;28;20041;-65
2022/11/26 12:58:24;;;;;;;9.65;3.30;;;;;;;;;;4995849;28;20049;-65
2022/11/26 13:00:54;;;;;;;9.63;2.75;;;;;;;;;;4996148;28;20062;-66
2022/11/26 13:03:31;;;;;;;10.63;3.00;;;;;;;;;;4981136;28;20050;-65
2022/11/26 13:06:19;;;;;;;8.57;3.10;;;;;;;;;;4996060;28;20100;-66
2022/11/26 13:08:53;;;;;;;8.52;3.00;;;;;;;;;;5012705;28;20096;-65
2022/11/26 13:11:38;;;;;;;12.55;3.10;;;;;;;;;;4980712;28;20050;-65
2022/11/26 13:14:10;;;;;;;8.77;2.30;;;;;;;;;;5013481;28;20050;-65
2022/11/26 13:16:45;;;;;;;11.65;3.45;;;;;;;;;;5013312;28;20064;-65
2022/11/26 13:19:33;;;;;;;8.45;2.60;;;;;;;;;;5012729;28;20342;-65
2022/11/26 13:22:39;;;;;;;9.80;3.53;;;;;;;;;;4998286;28;20053;-65
2022/11/26 13:25:24;;;;;;;6.80;2.72;;;;;;;;;;4989660;28;20081;-65
2022/11/26 13:28:05;;;;;;;6.78;3.15;;;;;;;;;;5012511;28;20050;-64
2022/11/26 13:30:44;;;;;;;6.32;3.15;;;;;;;;;;5012830;28;20088;-65
2022/11/26 13:33:23;;;;;;;11.65;3.08;;;;;;;;;;5012859;28;20101;-65
2022/11/26 13:36:18;;;;;;;9.27;3.60;;;;;;;;;;5013009;28;20046;-65
2022/11/26 13:39:04;;;;;;;9.02;2.88;;;;;;;;;;4995585;28;20061;-65
2022/11/26 13:41:45;;;;;;;8.98;3.22;;;;;;;;;;5012757;28;20081;-65
2022/11/26 13:44:23;;;;;;;10.00;2.97;;;;;;;;;;5013026;28;20053;-64
2022/11/26 13:46:58;;;;;;;7.65;2.92;;;;;;;;;;4993561;28;20042;-65
2022/11/26 13:49:27;;;;;;;11.55;3.38;;;;;;;;;;4978668;28;20053;-64
2022/11/26 13:52:00;;;;;;;10.85;3.05;;;;;;;;;;5012243;28;20440;-65
2022/11/26 13:54:39;;;;;;;8.88;3.22;;;;;;;;;;4995038;28;20081;-65
2022/11/26 13:57:09;;;;;;;8.05;3.45;;;;;;;;;;4995188;28;20053;-64
2022/11/26 13:59:48;;;;;;;8.25;3.53;;;;;;;;;;4994873;28;20080;-65
2022/11/26 14:02:34;;;;;;;9.85;3.45;;;;;;;;;;4996416;28;20057;-65
2022/11/26 14:05:05;;;;;;;10.57;3.60;;;;;;;;;;5012674;28;20136;-65
2022/11/26 14:07:32;;;;;;;8.90;3.58;;;;;;;;;;4994806;28;20046;-64
2022/11/26 14:10:00;;;;;;;8.82;3.53;;;;;;;;;;4994216;28;20054;-65
2022/11/26 14:13:01;;;;;;;11.88;4.13;;;;;;;;;;5012256;28;20050;-65
2022/11/26 14:15:40;;;;;;;10.15;4.10;;;;;;;;;;5012235;28;20548;-65
2022/11/26 14:18:14;;;;;;;10.10;3.90;;;;;;;;;;5011669;28;20053;-65
2022/11/26 14:20:59;;;;;;;8.55;3.60;;;;;;;;;;5011853;28;20084;-65
2022/11/26 14:23:49;;;;;;;7.10;3.28;;;;;;;;;;5012249;28;20050;-64
2022/11/26 14:26:36;;;;;;;10.55;4.00;;;;;;;;;;4994831;28;20054;-64
2022/11/26 14:29:14;;;;;;;17.13;4.78;;;;;;;;;;5011304;28;20505;-65
2022/11/26 14:31:40;;;;;;;10.98;5.43;;;;;;;;;;4993962;28;20077;-65
2022/11/26 14:34:13;;;;;;;10.15;4.13;;;;;;;;;;5012035;28;20104;-64
2022/11/26 14:36:57;;;;;;;9.15;4.00;;;;;;;;;;4979304;28;20049;-64
2022/11/26 14:39:24;;;;;;;8.50;4.38;;;;;;;;;;5011764;28;20112;-65
2022/11/26 14:41:56;;;;;;;16.27;4.45;;;;;;;;;;4994609;28;20475;-66
2022/11/26 14:44:30;;;;;;;9.75;3.92;;;;;;;;;;4995951;28;20058;-65
2022/11/26 14:46:58;;;;;;;8.75;3.75;;;;;;;;;;4976892;28;20042;-64
2022/11/26 14:49:41;;;;;;;10.50;3.80;;;;;;;;;;4977868;28;20467;-66
2022/11/26 14:52:21;;;;;;;8.23;3.90;;;;;;;;;;5011595;28;20442;-65
2022/11/26 14:54:51;;;;;;;10.45;3.80;;;;;;;;;;4994562;28;20412;-65
2022/11/26 14:57:21;;;;;;;8.90;4.63;;;;;;;;;;5011900;28;20080;-64
2022/11/26 14:59:59;;;;;;;11.63;4.20;;;;;;;;;;5011138;28;20104;-64
2022/11/26 15:02:28;;;;;;;11.32;4.97;;;;;;;;;;5011745;28;20108;-64